sensor_id;sensor_type;location;lat;lon;timestamp;P1;durP1;ratioP1;P2;durP2;ratioP2
21356;SDS011;10836;53.068;18.234;2023-07-02T00:00:49;13.07;;;6.45;;
21356;SDS011;10836;53.068;18.234;2023-07-02T00:03:38;9.48;;;6.00;;
21356;SDS011;10836;53.068;18.234;2023-07-02T00:06:05;9.23;;;5.82;;
21356;SDS011;10836;53.068;18.234;2023-07-02T00:08:33;10.02;;;6.00;;
21356;SDS011;10836;53.068;18.234;2023-07-02T00:11:00;9.23;;;6.30;;
21356;SDS011;10836;53.068;18.234;2023-07-02T00:13:27;13.48;;;5.80;;
21356;SDS011;10836;53.068;18.234;2023-07-02T00:15:54;15.45;;;6.57;;
21356;SDS011;10836;53.068;18.234;2023-07-02T00:18:21;10.57;;;6.40;;
21356;SDS011;10836;53.068;18.234;2023-07-02T00:20:48;8.18;;;5.43;;
21356;SDS011;10836;53.068;18.234;2023-07-02T00:23:15;8.65;;;5.88;;
21356;SDS011;10836;53.068;18.234;2023-07-02T00:25:42;11.15;;;6.10;;
21356;SDS011;10836;53.068;18.234;2023-07-02T00:28:09;12.90;;;6.03;;
21356;SDS011;10836;53.068;18.234;2023-07-02T00:30:36;8.85;;;5.50;;
21356;SDS011;10836;53.068;18.234;2023-07-02T00:33:03;9.13;;;5.32;;
21356;SDS011;10836;53.068;18.234;2023-07-02T00:35:30;10.35;;;6.18;;
21356;SDS011;10836;53.068;18.234;2023-07-02T00:37:57;10.65;;;6.55;;
21356;SDS011;10836;53.068;18.234;2023-07-02T00:40:26;10.52;;;6.07;;
21356;SDS011;10836;53.068;18.234;2023-07-02T00:42:53;10.23;;;5.82;;
21356;SDS011;10836;53.068;18.234;2023-07-02T00:45:21;10.45;;;5.95;;
21356;SDS011;10836;53.068;18.234;2023-07-02T00:47:47;12.88;;;6.40;;
21356;SDS011;10836;53.068;18.234;2023-07-02T00:50:15;8.23;;;5.80;;
21356;SDS011;10836;53.068;18.234;2023-07-02T00:52:42;9.60;;;5.95;;
21356;SDS011;10836;53.068;18.234;2023-07-02T00:55:09;11.85;;;5.90;;
21356;SDS011;10836;53.068;18.234;2023-07-02T00:57:36;11.55;;;5.68;;
21356;SDS011;10836;53.068;18.234;2023-07-02T01:00:04;13.80;;;6.38;;
21356;SDS011;10836;53.068;18.234;2023-07-02T01:02:33;8.27;;;5.95;;
21356;SDS011;10836;53.068;18.234;2023-07-02T01:05:00;8.13;;;5.63;;
21356;SDS011;10836;53.068;18.234;2023-07-02T01:07:28;9.32;;;5.90;;
21356;SDS011;10836;53.068;18.234;2023-07-02T01:09:55;7.65;;;5.55;;
21356;SDS011;10836;53.068;18.234;2023-07-02T01:12:22;9.38;;;5.80;;
21356;SDS011;10836;53.068;18.234;2023-07-02T01:14:51;12.38;;;5.78;;
21356;SDS011;10836;53.068;18.234;2023-07-02T01:17:22;10.73;;;6.15;;
21356;SDS011;10836;53.068;18.234;2023-07-02T01:22:27;10.27;;;6.18;;
21356;SDS011;10836;53.068;18.234;2023-07-02T01:24:56;7.68;;;5.13;;
21356;SDS011;10836;53.068;18.234;2023-07-02T01:27:22;9.30;;;5.85;;
21356;SDS011;10836;53.068;18.234;2023-07-02T01:29:50;9.20;;;5.55;;
21356;SDS011;10836;53.068;18.234;2023-07-02T01:32:17;8.18;;;5.50;;
21356;SDS011;10836;53.068;18.234;2023-07-02T01:34:45;8.13;;;5.30;;
21356;SDS011;10836;53.068;18.234;2023-07-02T01:37:16;9.85;;;5.55;;
21356;SDS011;10836;53.068;18.234;2023-07-02T01:39:46;8.23;;;5.45;;
21356;SDS011;10836;53.068;18.234;2023-07-02T01:42:14;13.63;;;5.57;;
21356;SDS011;10836;53.068;18.234;2023-07-02T01:44:43;12.02;;;5.40;;
21356;SDS011;10836;53.068;18.234;2023-07-02T01:47:10;9.05;;;5.60;;
21356;SDS011;10836;53.068;18.234;2023-07-02T01:49:38;7.93;;;5.40;;
21356;SDS011;10836;53.068;18.234;2023-07-02T01:52:05;15.05;;;5.95;;
21356;SDS011;10836;53.068;18.234;2023-07-02T01:54:34;8.02;;;5.28;;
21356;SDS011;10836;53.068;18.234;2023-07-02T01:57:03;8.10;;;5.40;;
21356;SDS011;10836;53.068;18.234;2023-07-02T01:59:31;7.70;;;5.55;;
21356;SDS011;10836;53.068;18.234;2023-07-02T02:01:58;10.50;;;5.90;;
21356;SDS011;10836;53.068;18.234;2023-07-02T02:04:25;11.55;;;5.43;;
21356;SDS011;10836;53.068;18.234;2023-07-02T02:06:53;11.75;;;5.47;;
21356;SDS011;10836;53.068;18.234;2023-07-02T02:09:20;10.57;;;5.40;;
21356;SDS011;10836;53.068;18.234;2023-07-02T02:11:50;7.70;;;5.75;;
21356;SDS011;10836;53.068;18.234;2023-07-02T02:14:19;10.30;;;5.85;;
21356;SDS011;10836;53.068;18.234;2023-07-02T02:16:46;11.00;;;6.05;;
21356;SDS011;10836;53.068;18.234;2023-07-02T02:19:14;7.68;;;5.80;;
21356;SDS011;10836;53.068;18.234;2023-07-02T02:21:41;9.02;;;5.57;;
21356;SDS011;10836;53.068;18.234;2023-07-02T02:24:09;11.05;;;5.57;;
21356;SDS011;10836;53.068;18.234;2023-07-02T02:26:36;10.18;;;5.05;;
21356;SDS011;10836;53.068;18.234;2023-07-02T02:29:04;9.13;;;5.07;;
21356;SDS011;10836;53.068;18.234;2023-07-02T02:31:31;8.18;;;4.80;;
21356;SDS011;10836;53.068;18.234;2023-07-02T02:34:00;9.63;;;4.97;;
21356;SDS011;10836;53.068;18.234;2023-07-02T02:36:27;8.05;;;4.60;;
21356;SDS011;10836;53.068;18.234;2023-07-02T02:38:54;8.60;;;4.60;;
21356;SDS011;10836;53.068;18.234;2023-07-02T02:41:22;8.68;;;4.18;;
21356;SDS011;10836;53.068;18.234;2023-07-02T02:43:51;11.75;;;4.57;;
21356;SDS011;10836;53.068;18.234;2023-07-02T02:46:20;10.35;;;4.95;;
21356;SDS011;10836;53.068;18.234;2023-07-02T02:48:49;10.27;;;4.80;;
21356;SDS011;10836;53.068;18.234;2023-07-02T02:51:16;6.15;;;4.55;;
21356;SDS011;10836;53.068;18.234;2023-07-02T02:53:44;7.47;;;4.05;;
21356;SDS011;10836;53.068;18.234;2023-07-02T02:56:11;6.38;;;3.70;;
21356;SDS011;10836;53.068;18.234;2023-07-02T02:58:39;7.00;;;3.78;;
21356;SDS011;10836;53.068;18.234;2023-07-02T03:01:07;7.10;;;3.83;;
21356;SDS011;10836;53.068;18.234;2023-07-02T03:03:39;6.78;;;3.60;;
21356;SDS011;10836;53.068;18.234;2023-07-02T03:06:12;6.25;;;3.38;;
21356;SDS011;10836;53.068;18.234;2023-07-02T03:08:41;6.72;;;3.65;;
21356;SDS011;10836;53.068;18.234;2023-07-02T03:11:08;7.65;;;3.25;;
21356;SDS011;10836;53.068;18.234;2023-07-02T03:13:35;7.93;;;3.42;;
21356;SDS011;10836;53.068;18.234;2023-07-02T03:16:02;6.82;;;3.53;;
21356;SDS011;10836;53.068;18.234;2023-07-02T03:18:29;9.52;;;3.88;;
21356;SDS011;10836;53.068;18.234;2023-07-02T03:20:56;8.90;;;3.45;;
21356;SDS011;10836;53.068;18.234;2023-07-02T03:23:23;6.50;;;4.32;;
21356;SDS011;10836;53.068;18.234;2023-07-02T03:25:50;9.40;;;3.95;;
21356;SDS011;10836;53.068;18.234;2023-07-02T03:28:17;6.60;;;4.18;;
21356;SDS011;10836;53.068;18.234;2023-07-02T03:30:44;6.40;;;4.13;;
21356;SDS011;10836;53.068;18.234;2023-07-02T03:33:11;11.73;;;3.83;;
21356;SDS011;10836;53.068;18.234;2023-07-02T03:35:38;9.30;;;3.97;;
21356;SDS011;10836;53.068;18.234;2023-07-02T03:38:05;8.93;;;3.65;;
21356;SDS011;10836;53.068;18.234;2023-07-02T03:40:32;5.38;;;3.47;;
21356;SDS011;10836;53.068;18.234;2023-07-02T03:42:59;6.10;;;3.67;;
21356;SDS011;10836;53.068;18.234;2023-07-02T03:45:26;7.32;;;3.90;;
21356;SDS011;10836;53.068;18.234;2023-07-02T03:47:54;10.93;;;4.20;;
21356;SDS011;10836;53.068;18.234;2023-07-02T03:50:21;7.18;;;3.40;;
21356;SDS011;10836;53.068;18.234;2023-07-02T03:52:48;11.77;;;3.55;;
21356;SDS011;10836;53.068;18.234;2023-07-02T03:55:14;7.45;;;3.47;;
21356;SDS011;10836;53.068;18.234;2023-07-02T03:57:42;7.25;;;3.60;;
21356;SDS011;10836;53.068;18.234;2023-07-02T04:00:09;7.80;;;3.72;;
21356;SDS011;10836;53.068;18.234;2023-07-02T04:02:40;5.95;;;3.30;;
21356;SDS011;10836;53.068;18.234;2023-07-02T04:05:08;6.07;;;3.50;;
21356;SDS011;10836;53.068;18.234;2023-07-02T04:07:35;6.28;;;3.22;;
21356;SDS011;10836;53.068;18.234;2023-07-02T04:10:02;5.28;;;3.65;;
21356;SDS011;10836;53.068;18.234;2023-07-02T04:12:30;7.68;;;3.55;;
21356;SDS011;10836;53.068;18.234;2023-07-02T04:14:57;8.40;;;3.00;;
21356;SDS011;10836;53.068;18.234;2023-07-02T04:17:24;4.60;;;2.70;;
21356;SDS011;10836;53.068;18.234;2023-07-02T04:19:53;5.68;;;3.17;;
21356;SDS011;10836;53.068;18.234;2023-07-02T04:22:21;7.55;;;3.30;;
21356;SDS011;10836;53.068;18.234;2023-07-02T04:24:48;6.88;;;3.33;;
21356;SDS011;10836;53.068;18.234;2023-07-02T04:27:19;6.07;;;3.28;;
21356;SDS011;10836;53.068;18.234;2023-07-02T04:30:06;6.88;;;3.55;;
21356;SDS011;10836;53.068;18.234;2023-07-02T04:32:35;8.32;;;3.30;;
21356;SDS011;10836;53.068;18.234;2023-07-02T04:35:03;7.90;;;3.17;;
21356;SDS011;10836;53.068;18.234;2023-07-02T04:37:30;5.78;;;3.30;;
21356;SDS011;10836;53.068;18.234;2023-07-02T04:39:57;9.73;;;3.17;;
21356;SDS011;10836;53.068;18.234;2023-07-02T04:42:24;6.10;;;3.47;;
21356;SDS011;10836;53.068;18.234;2023-07-02T04:44:54;7.53;;;3.10;;
21356;SDS011;10836;53.068;18.234;2023-07-02T04:47:21;5.85;;;3.33;;
21356;SDS011;10836;53.068;18.234;2023-07-02T04:49:48;6.03;;;3.00;;
21356;SDS011;10836;53.068;18.234;2023-07-02T04:52:16;4.03;;;2.78;;
21356;SDS011;10836;53.068;18.234;2023-07-02T04:54:42;11.52;;;2.75;;
21356;SDS011;10836;53.068;18.234;2023-07-02T04:57:09;7.55;;;3.08;;
21356;SDS011;10836;53.068;18.234;2023-07-02T04:59:36;5.45;;;3.00;;
21356;SDS011;10836;53.068;18.234;2023-07-02T05:02:04;4.78;;;2.83;;
21356;SDS011;10836;53.068;18.234;2023-07-02T05:04:30;8.43;;;2.80;;
21356;SDS011;10836;53.068;18.234;2023-07-02T05:06:59;6.72;;;2.97;;
21356;SDS011;10836;53.068;18.234;2023-07-02T05:09:26;3.40;;;2.33;;
21356;SDS011;10836;53.068;18.234;2023-07-02T05:11:53;5.00;;;2.45;;
21356;SDS011;10836;53.068;18.234;2023-07-02T05:14:20;5.88;;;2.75;;
21356;SDS011;10836;53.068;18.234;2023-07-02T05:16:47;3.17;;;2.70;;
21356;SDS011;10836;53.068;18.234;2023-07-02T05:19:14;3.78;;;2.22;;
21356;SDS011;10836;53.068;18.234;2023-07-02T05:21:41;5.45;;;3.10;;
21356;SDS011;10836;53.068;18.234;2023-07-02T05:24:09;4.00;;;2.70;;
21356;SDS011;10836;53.068;18.234;2023-07-02T05:26:36;3.03;;;2.63;;
21356;SDS011;10836;53.068;18.234;2023-07-02T05:29:03;5.03;;;3.00;;
21356;SDS011;10836;53.068;18.234;2023-07-02T05:31:31;3.90;;;2.65;;
21356;SDS011;10836;53.068;18.234;2023-07-02T05:34:00;5.78;;;2.80;;
21356;SDS011;10836;53.068;18.234;2023-07-02T05:36:28;7.22;;;2.65;;
21356;SDS011;10836;53.068;18.234;2023-07-02T05:38:54;3.00;;;2.50;;
21356;SDS011;10836;53.068;18.234;2023-07-02T05:41:21;5.30;;;2.67;;
21356;SDS011;10836;53.068;18.234;2023-07-02T05:43:49;3.55;;;2.30;;
21356;SDS011;10836;53.068;18.234;2023-07-02T05:46:16;2.83;;;1.90;;
21356;SDS011;10836;53.068;18.234;2023-07-02T05:48:43;2.85;;;1.92;;
21356;SDS011;10836;53.068;18.234;2023-07-02T05:51:10;2.85;;;2.10;;
21356;SDS011;10836;53.068;18.234;2023-07-02T05:53:37;2.92;;;2.13;;
21356;SDS011;10836;53.068;18.234;2023-07-02T05:56:04;7.60;;;1.80;;
21356;SDS011;10836;53.068;18.234;2023-07-02T05:58:31;4.57;;;2.00;;
21356;SDS011;10836;53.068;18.234;2023-07-02T06:01:14;2.42;;;2.10;;
21356;SDS011;10836;53.068;18.234;2023-07-02T06:03:41;3.92;;;1.90;;
21356;SDS011;10836;53.068;18.234;2023-07-02T06:06:11;8.43;;;2.63;;
21356;SDS011;10836;53.068;18.234;2023-07-02T06:08:38;3.92;;;1.90;;
21356;SDS011;10836;53.068;18.234;2023-07-02T06:11:05;3.80;;;1.63;;
21356;SDS011;10836;53.068;18.234;2023-07-02T06:13:32;3.92;;;1.92;;
21356;SDS011;10836;53.068;18.234;2023-07-02T06:15:59;4.38;;;2.03;;
21356;SDS011;10836;53.068;18.234;2023-07-02T06:18:26;2.72;;;1.95;;
21356;SDS011;10836;53.068;18.234;2023-07-02T06:20:54;2.92;;;1.70;;
21356;SDS011;10836;53.068;18.234;2023-07-02T06:23:21;3.58;;;2.13;;
21356;SDS011;10836;53.068;18.234;2023-07-02T06:25:48;5.82;;;1.67;;
21356;SDS011;10836;53.068;18.234;2023-07-02T06:28:15;3.08;;;1.60;;
21356;SDS011;10836;53.068;18.234;2023-07-02T06:30:42;2.38;;;1.88;;
21356;SDS011;10836;53.068;18.234;2023-07-02T06:33:09;1.85;;;1.52;;
21356;SDS011;10836;53.068;18.234;2023-07-02T06:35:36;2.00;;;1.30;;
21356;SDS011;10836;53.068;18.234;2023-07-02T06:38:03;2.40;;;1.60;;
21356;SDS011;10836;53.068;18.234;2023-07-02T06:40:30;3.33;;;1.50;;
21356;SDS011;10836;53.068;18.234;2023-07-02T06:42:57;1.95;;;1.48;;
21356;SDS011;10836;53.068;18.234;2023-07-02T06:45:24;2.75;;;1.50;;
21356;SDS011;10836;53.068;18.234;2023-07-02T06:47:51;2.03;;;1.40;;
21356;SDS011;10836;53.068;18.234;2023-07-02T06:50:18;2.88;;;1.70;;
21356;SDS011;10836;53.068;18.234;2023-07-02T06:52:45;3.80;;;1.50;;
21356;SDS011;10836;53.068;18.234;2023-07-02T06:55:12;8.13;;;1.90;;
21356;SDS011;10836;53.068;18.234;2023-07-02T06:57:41;3.55;;;1.50;;
21356;SDS011;10836;53.068;18.234;2023-07-02T07:00:10;7.45;;;1.88;;
21356;SDS011;10836;53.068;18.234;2023-07-02T07:02:41;2.97;;;1.63;;
21356;SDS011;10836;53.068;18.234;2023-07-02T07:05:08;6.95;;;1.65;;
21356;SDS011;10836;53.068;18.234;2023-07-02T07:07:36;4.15;;;1.60;;
21356;SDS011;10836;53.068;18.234;2023-07-02T07:10:03;4.07;;;1.50;;
21356;SDS011;10836;53.068;18.234;2023-07-02T07:12:30;2.90;;;1.55;;
21356;SDS011;10836;53.068;18.234;2023-07-02T07:14:58;4.63;;;1.65;;
21356;SDS011;10836;53.068;18.234;2023-07-02T07:17:25;3.60;;;1.60;;
21356;SDS011;10836;53.068;18.234;2023-07-02T07:19:52;3.97;;;2.10;;
21356;SDS011;10836;53.068;18.234;2023-07-02T07:22:19;3.33;;;1.73;;
21356;SDS011;10836;53.068;18.234;2023-07-02T07:24:46;2.38;;;1.70;;
21356;SDS011;10836;53.068;18.234;2023-07-02T07:27:13;8.55;;;2.15;;
21356;SDS011;10836;53.068;18.234;2023-07-02T07:29:40;5.45;;;2.03;;
21356;SDS011;10836;53.068;18.234;2023-07-02T07:32:07;2.00;;;1.52;;
21356;SDS011;10836;53.068;18.234;2023-07-02T07:34:34;7.28;;;1.95;;
21356;SDS011;10836;53.068;18.234;2023-07-02T07:37:01;5.93;;;1.90;;
21356;SDS011;10836;53.068;18.234;2023-07-02T07:39:29;7.03;;;2.20;;
21356;SDS011;10836;53.068;18.234;2023-07-02T07:41:55;8.38;;;1.95;;
21356;SDS011;10836;53.068;18.234;2023-07-02T07:44:22;1.98;;;1.60;;
21356;SDS011;10836;53.068;18.234;2023-07-02T07:46:49;6.03;;;2.55;;
21356;SDS011;10836;53.068;18.234;2023-07-02T07:49:16;3.97;;;2.00;;
21356;SDS011;10836;53.068;18.234;2023-07-02T07:51:43;5.32;;;2.00;;
21356;SDS011;10836;53.068;18.234;2023-07-02T07:54:10;5.00;;;2.28;;
21356;SDS011;10836;53.068;18.234;2023-07-02T07:56:38;2.55;;;1.77;;
21356;SDS011;10836;53.068;18.234;2023-07-02T07:59:05;4.80;;;1.80;;
21356;SDS011;10836;53.068;18.234;2023-07-02T08:01:32;4.65;;;1.88;;
21356;SDS011;10836;53.068;18.234;2023-07-02T08:03:59;2.83;;;1.83;;
21356;SDS011;10836;53.068;18.234;2023-07-02T08:06:26;3.30;;;1.90;;
21356;SDS011;10836;53.068;18.234;2023-07-02T08:08:54;3.20;;;1.90;;
21356;SDS011;10836;53.068;18.234;2023-07-02T08:11:20;2.20;;;1.70;;
21356;SDS011;10836;53.068;18.234;2023-07-02T08:13:48;3.17;;;2.25;;
21356;SDS011;10836;53.068;18.234;2023-07-02T08:16:15;3.95;;;1.73;;
21356;SDS011;10836;53.068;18.234;2023-07-02T08:18:42;2.85;;;2.05;;
21356;SDS011;10836;53.068;18.234;2023-07-02T08:21:09;3.78;;;1.83;;
21356;SDS011;10836;53.068;18.234;2023-07-02T08:23:36;5.38;;;1.80;;
21356;SDS011;10836;53.068;18.234;2023-07-02T08:26:03;2.10;;;1.55;;
21356;SDS011;10836;53.068;18.234;2023-07-02T08:28:30;6.75;;;1.55;;
21356;SDS011;10836;53.068;18.234;2023-07-02T08:30:57;4.25;;;1.95;;
21356;SDS011;10836;53.068;18.234;2023-07-02T08:33:25;6.43;;;1.70;;
21356;SDS011;10836;53.068;18.234;2023-07-02T08:35:52;5.65;;;1.73;;
21356;SDS011;10836;53.068;18.234;2023-07-02T08:38:19;6.00;;;1.63;;
21356;SDS011;10836;53.068;18.234;2023-07-02T08:40:45;6.13;;;1.98;;
21356;SDS011;10836;53.068;18.234;2023-07-02T08:43:13;3.88;;;1.75;;
21356;SDS011;10836;53.068;18.234;2023-07-02T08:45:40;4.40;;;2.00;;
21356;SDS011;10836;53.068;18.234;2023-07-02T08:48:12;3.55;;;1.45;;
21356;SDS011;10836;53.068;18.234;2023-07-02T08:50:39;5.10;;;1.80;;
21356;SDS011;10836;53.068;18.234;2023-07-02T08:53:06;5.18;;;1.75;;
21356;SDS011;10836;53.068;18.234;2023-07-02T08:55:33;2.00;;;1.50;;
21356;SDS011;10836;53.068;18.234;2023-07-02T08:58:00;4.00;;;1.70;;
21356;SDS011;10836;53.068;18.234;2023-07-02T09:00:27;5.75;;;1.67;;
21356;SDS011;10836;53.068;18.234;2023-07-02T09:02:54;2.70;;;1.52;;
21356;SDS011;10836;53.068;18.234;2023-07-02T09:05:21;5.50;;;2.03;;
21356;SDS011;10836;53.068;18.234;2023-07-02T09:07:48;3.95;;;1.65;;
21356;SDS011;10836;53.068;18.234;2023-07-02T09:10:26;4.13;;;1.73;;
21356;SDS011;10836;53.068;18.234;2023-07-02T09:13:11;5.00;;;1.70;;
21356;SDS011;10836;53.068;18.234;2023-07-02T09:15:38;2.97;;;1.48;;
21356;SDS011;10836;53.068;18.234;2023-07-02T09:18:20;4.85;;;1.73;;
21356;SDS011;10836;53.068;18.234;2023-07-02T09:20:51;4.75;;;1.70;;
21356;SDS011;10836;53.068;18.234;2023-07-02T09:23:20;3.92;;;1.75;;
21356;SDS011;10836;53.068;18.234;2023-07-02T09:25:47;4.05;;;1.35;;
21356;SDS011;10836;53.068;18.234;2023-07-02T09:28:16;7.22;;;2.08;;
21356;SDS011;10836;53.068;18.234;2023-07-02T09:30:48;3.15;;;1.83;;
21356;SDS011;10836;53.068;18.234;2023-07-02T09:33:17;4.57;;;1.70;;
21356;SDS011;10836;53.068;18.234;2023-07-02T09:35:45;3.17;;;1.75;;
21356;SDS011;10836;53.068;18.234;2023-07-02T09:38:12;2.58;;;1.48;;
21356;SDS011;10836;53.068;18.234;2023-07-02T09:40:44;5.75;;;2.08;;
21356;SDS011;10836;53.068;18.234;2023-07-02T09:43:17;2.78;;;1.70;;
21356;SDS011;10836;53.068;18.234;2023-07-02T09:45:46;4.35;;;1.50;;
21356;SDS011;10836;53.068;18.234;2023-07-02T09:48:16;3.22;;;2.00;;
21356;SDS011;10836;53.068;18.234;2023-07-02T09:50:45;4.13;;;1.83;;
21356;SDS011;10836;53.068;18.234;2023-07-02T09:53:15;4.13;;;1.70;;
21356;SDS011;10836;53.068;18.234;2023-07-02T09:55:42;4.50;;;2.05;;
21356;SDS011;10836;53.068;18.234;2023-07-02T09:58:10;3.40;;;2.10;;
21356;SDS011;10836;53.068;18.234;2023-07-02T10:00:41;3.83;;;2.15;;
21356;SDS011;10836;53.068;18.234;2023-07-02T10:03:08;3.08;;;2.05;;
21356;SDS011;10836;53.068;18.234;2023-07-02T10:05:36;5.28;;;2.47;;
21356;SDS011;10836;53.068;18.234;2023-07-02T10:08:15;10.25;;;2.47;;
21356;SDS011;10836;53.068;18.234;2023-07-02T10:10:48;8.15;;;2.92;;
21356;SDS011;10836;53.068;18.234;2023-07-02T10:13:26;2.83;;;1.92;;
21356;SDS011;10836;53.068;18.234;2023-07-02T10:16:00;7.28;;;2.60;;
21356;SDS011;10836;53.068;18.234;2023-07-02T10:18:30;5.60;;;3.38;;
21356;SDS011;10836;53.068;18.234;2023-07-02T10:20:57;5.05;;;2.53;;
21356;SDS011;10836;53.068;18.234;2023-07-02T10:23:34;4.53;;;2.30;;
21356;SDS011;10836;53.068;18.234;2023-07-02T10:26:14;9.63;;;2.42;;
21356;SDS011;10836;53.068;18.234;2023-07-02T10:28:56;7.53;;;2.55;;
21356;SDS011;10836;53.068;18.234;2023-07-02T10:31:25;8.80;;;2.40;;
21356;SDS011;10836;53.068;18.234;2023-07-02T10:33:53;7.88;;;2.20;;
21356;SDS011;10836;53.068;18.234;2023-07-02T10:36:20;7.75;;;2.60;;
21356;SDS011;10836;53.068;18.234;2023-07-02T10:38:50;8.48;;;2.17;;
21356;SDS011;10836;53.068;18.234;2023-07-02T10:41:24;6.43;;;2.35;;
21356;SDS011;10836;53.068;18.234;2023-07-02T10:43:53;6.47;;;1.92;;
21356;SDS011;10836;53.068;18.234;2023-07-02T10:46:21;8.80;;;2.00;;
21356;SDS011;10836;53.068;18.234;2023-07-02T10:48:52;6.32;;;2.22;;
21356;SDS011;10836;53.068;18.234;2023-07-02T10:51:23;6.80;;;2.70;;
21356;SDS011;10836;53.068;18.234;2023-07-02T10:53:58;7.85;;;2.10;;
21356;SDS011;10836;53.068;18.234;2023-07-02T10:56:26;7.00;;;2.08;;
21356;SDS011;10836;53.068;18.234;2023-07-02T10:58:55;3.72;;;1.80;;
21356;SDS011;10836;53.068;18.234;2023-07-02T11:01:26;4.15;;;2.00;;
21356;SDS011;10836;53.068;18.234;2023-07-02T11:03:59;5.75;;;2.25;;
21356;SDS011;10836;53.068;18.234;2023-07-02T11:06:29;10.55;;;2.10;;
21356;SDS011;10836;53.068;18.234;2023-07-02T11:08:58;4.95;;;2.28;;
21356;SDS011;10836;53.068;18.234;2023-07-02T11:11:26;6.28;;;2.20;;
21356;SDS011;10836;53.068;18.234;2023-07-02T11:13:54;10.30;;;2.10;;
21356;SDS011;10836;53.068;18.234;2023-07-02T11:16:25;10.50;;;2.45;;
21356;SDS011;10836;53.068;18.234;2023-07-02T11:19:07;6.05;;;2.17;;
21356;SDS011;10836;53.068;18.234;2023-07-02T11:21:36;8.40;;;2.03;;
21356;SDS011;10836;53.068;18.234;2023-07-02T11:24:05;6.95;;;2.38;;
21356;SDS011;10836;53.068;18.234;2023-07-02T11:26:39;7.28;;;2.25;;
21356;SDS011;10836;53.068;18.234;2023-07-02T11:29:10;4.15;;;2.00;;
21356;SDS011;10836;53.068;18.234;2023-07-02T11:31:38;4.45;;;2.30;;
21356;SDS011;10836;53.068;18.234;2023-07-02T11:34:16;4.85;;;1.77;;
21356;SDS011;10836;53.068;18.234;2023-07-02T11:36:45;5.43;;;2.05;;
21356;SDS011;10836;53.068;18.234;2023-07-02T11:39:14;5.47;;;2.03;;
21356;SDS011;10836;53.068;18.234;2023-07-02T11:41:44;10.60;;;2.45;;
21356;SDS011;10836;53.068;18.234;2023-07-02T11:44:12;9.98;;;2.25;;
21356;SDS011;10836;53.068;18.234;2023-07-02T11:46:39;6.82;;;2.20;;
21356;SDS011;10836;53.068;18.234;2023-07-02T11:49:06;7.03;;;2.10;;
21356;SDS011;10836;53.068;18.234;2023-07-02T11:51:36;20.50;;;2.95;;
21356;SDS011;10836;53.068;18.234;2023-07-02T11:54:06;7.10;;;2.22;;
21356;SDS011;10836;53.068;18.234;2023-07-02T11:56:33;6.13;;;1.95;;
21356;SDS011;10836;53.068;18.234;2023-07-02T11:59:01;9.35;;;2.42;;
21356;SDS011;10836;53.068;18.234;2023-07-02T12:01:30;14.45;;;2.40;;
21356;SDS011;10836;53.068;18.234;2023-07-02T12:03:58;12.48;;;2.50;;
21356;SDS011;10836;53.068;18.234;2023-07-02T12:06:25;8.82;;;2.28;;
21356;SDS011;10836;53.068;18.234;2023-07-02T12:08:53;6.38;;;2.58;;
21356;SDS011;10836;53.068;18.234;2023-07-02T12:11:19;8.10;;;2.40;;
21356;SDS011;10836;53.068;18.234;2023-07-02T12:13:46;3.58;;;2.33;;
21356;SDS011;10836;53.068;18.234;2023-07-02T12:16:13;5.55;;;2.10;;
21356;SDS011;10836;53.068;18.234;2023-07-02T12:18:40;5.07;;;2.25;;
21356;SDS011;10836;53.068;18.234;2023-07-02T12:21:07;4.45;;;2.17;;
21356;SDS011;10836;53.068;18.234;2023-07-02T12:23:35;5.97;;;2.20;;
21356;SDS011;10836;53.068;18.234;2023-07-02T12:26:02;10.82;;;2.30;;
21356;SDS011;10836;53.068;18.234;2023-07-02T12:28:29;5.15;;;2.20;;
21356;SDS011;10836;53.068;18.234;2023-07-02T12:30:55;7.60;;;2.42;;
21356;SDS011;10836;53.068;18.234;2023-07-02T12:33:23;5.20;;;2.22;;
21356;SDS011;10836;53.068;18.234;2023-07-02T12:35:49;11.55;;;2.70;;
21356;SDS011;10836;53.068;18.234;2023-07-02T12:38:17;9.32;;;2.20;;
21356;SDS011;10836;53.068;18.234;2023-07-02T12:40:44;10.20;;;2.58;;
21356;SDS011;10836;53.068;18.234;2023-07-02T12:43:11;6.57;;;2.30;;
21356;SDS011;10836;53.068;18.234;2023-07-02T12:45:38;7.43;;;2.22;;
21356;SDS011;10836;53.068;18.234;2023-07-02T12:48:05;5.35;;;2.10;;
21356;SDS011;10836;53.068;18.234;2023-07-02T12:50:32;6.28;;;2.60;;
21356;SDS011;10836;53.068;18.234;2023-07-02T12:52:59;7.18;;;2.60;;
21356;SDS011;10836;53.068;18.234;2023-07-02T12:55:26;10.85;;;2.60;;
21356;SDS011;10836;53.068;18.234;2023-07-02T12:57:54;5.00;;;2.10;;
21356;SDS011;10836;53.068;18.234;2023-07-02T13:00:22;6.55;;;2.40;;
21356;SDS011;10836;53.068;18.234;2023-07-02T13:02:50;4.63;;;2.60;;
21356;SDS011;10836;53.068;18.234;2023-07-02T13:05:32;14.73;;;2.92;;
21356;SDS011;10836;53.068;18.234;2023-07-02T13:08:02;6.32;;;2.20;;
21356;SDS011;10836;53.068;18.234;2023-07-02T13:10:29;8.32;;;2.50;;
21356;SDS011;10836;53.068;18.234;2023-07-02T13:12:57;8.10;;;2.60;;
21356;SDS011;10836;53.068;18.234;2023-07-02T13:15:36;6.95;;;2.42;;
21356;SDS011;10836;53.068;18.234;2023-07-02T13:18:04;7.40;;;2.50;;
21356;SDS011;10836;53.068;18.234;2023-07-02T13:20:32;6.95;;;2.35;;
21356;SDS011;10836;53.068;18.234;2023-07-02T13:22:59;4.20;;;2.20;;
21356;SDS011;10836;53.068;18.234;2023-07-02T13:25:27;9.63;;;2.85;;
21356;SDS011;10836;53.068;18.234;2023-07-02T13:27:54;10.23;;;2.63;;
21356;SDS011;10836;53.068;18.234;2023-07-02T13:30:21;6.55;;;2.30;;
21356;SDS011;10836;53.068;18.234;2023-07-02T13:32:48;6.03;;;2.53;;
21356;SDS011;10836;53.068;18.234;2023-07-02T13:35:15;10.68;;;2.58;;
21356;SDS011;10836;53.068;18.234;2023-07-02T13:37:43;6.68;;;2.97;;
21356;SDS011;10836;53.068;18.234;2023-07-02T13:40:10;7.95;;;2.72;;
21356;SDS011;10836;53.068;18.234;2023-07-02T13:42:39;11.48;;;2.75;;
21356;SDS011;10836;53.068;18.234;2023-07-02T13:45:06;24.55;;;3.75;;
21356;SDS011;10836;53.068;18.234;2023-07-02T13:47:35;11.48;;;2.63;;
21356;SDS011;10836;53.068;18.234;2023-07-02T13:50:03;8.82;;;2.78;;
21356;SDS011;10836;53.068;18.234;2023-07-02T13:52:31;5.68;;;2.50;;
21356;SDS011;10836;53.068;18.234;2023-07-02T13:54:57;11.85;;;2.63;;
21356;SDS011;10836;53.068;18.234;2023-07-02T13:57:25;4.10;;;2.33;;
21356;SDS011;10836;53.068;18.234;2023-07-02T13:59:52;6.47;;;2.63;;
21356;SDS011;10836;53.068;18.234;2023-07-02T14:02:20;10.27;;;3.33;;
21356;SDS011;10836;53.068;18.234;2023-07-02T14:04:47;9.23;;;3.22;;
21356;SDS011;10836;53.068;18.234;2023-07-02T14:07:14;8.57;;;2.97;;
21356;SDS011;10836;53.068;18.234;2023-07-02T14:09:41;8.00;;;2.40;;
21356;SDS011;10836;53.068;18.234;2023-07-02T14:12:08;28.13;;;4.63;;
21356;SDS011;10836;53.068;18.234;2023-07-02T14:14:35;15.07;;;3.75;;
21356;SDS011;10836;53.068;18.234;2023-07-02T14:17:03;7.22;;;2.70;;
21356;SDS011;10836;53.068;18.234;2023-07-02T14:19:29;8.63;;;2.88;;
21356;SDS011;10836;53.068;18.234;2023-07-02T14:21:57;8.32;;;2.75;;
21356;SDS011;10836;53.068;18.234;2023-07-02T14:24:24;22.42;;;3.97;;
21356;SDS011;10836;53.068;18.234;2023-07-02T14:26:52;9.23;;;3.47;;
21356;SDS011;10836;53.068;18.234;2023-07-02T14:29:19;11.68;;;3.38;;
21356;SDS011;10836;53.068;18.234;2023-07-02T14:31:46;13.18;;;3.85;;
21356;SDS011;10836;53.068;18.234;2023-07-02T14:34:14;10.82;;;3.10;;
21356;SDS011;10836;53.068;18.234;2023-07-02T14:36:42;9.05;;;3.70;;
21356;SDS011;10836;53.068;18.234;2023-07-02T14:39:09;14.15;;;3.38;;
21356;SDS011;10836;53.068;18.234;2023-07-02T14:41:36;9.70;;;3.47;;